Time;durP1;ratioP1;P1;durP2;ratioP2;P2;SDS_P1;SDS_P2;PMS_P1;PMS_P2;Temp;Humidity;BMP_temperature;BMP_pressure;BME280_temperature;BME280_humidity;BME280_pressure;Samples;Min_cycle;Max_cycle;Signal;HPM_P1;HPM_P2
2021/12/03 00:00:01;;;;;;;5.95;4.45;;;;;;;;;;5093541;28;20044;-66
2021/12/03 00:02:27;;;;;;;6.07;4.45;;;;;;;;;;5091879;28;20047;-66
2021/12/03 00:04:54;;;;;;;6.28;4.53;;;;;;;;;;5093393;28;20044;-66
2021/12/03 00:07:21;;;;;;;6.47;4.75;;;;;;;;;;5093368;28;20554;-66
2021/12/03 00:09:47;;;;;;;6.72;4.70;;;;;;;;;;5092438;28;20122;-66
2021/12/03 00:12:13;;;;;;;5.72;3.92;;;;;;;;;;5093203;28;20509;-66
2021/12/03 00:14:39;;;;;;;5.10;4.25;;;;;;;;;;5093624;28;20040;-66
2021/12/03 00:17:05;;;;;;;7.65;4.53;;;;;;;;;;5092413;28;20048;-66
2021/12/03 00:19:32;;;;;;;5.28;4.28;;;;;;;;;;5093263;28;20048;-66
2021/12/03 00:21:59;;;;;;;6.60;4.50;;;;;;;;;;5093046;28;20475;-66
2021/12/03 00:24:26;;;;;;;5.35;4.05;;;;;;;;;;5092316;28;20048;-66
2021/12/03 00:26:52;;;;;;;6.45;4.30;;;;;;;;;;5093014;28;20052;-66
2021/12/03 00:29:18;;;;;;;7.07;4.05;;;;;;;;;;5092498;28;20094;-66
2021/12/03 00:31:44;;;;;;;5.47;4.53;;;;;;;;;;5092777;28;20052;-66
2021/12/03 00:34:11;;;;;;;6.32;4.50;;;;;;;;;;5093081;28;20456;-66
2021/12/03 00:36:37;;;;;;;6.65;4.20;;;;;;;;;;5092506;28;20119;-66
2021/12/03 00:39:05;;;;;;;6.40;4.35;;;;;;;;;;5092810;28;20129;-66
2021/12/03 00:41:34;;;;;;;5.63;4.43;;;;;;;;;;5093144;28;20391;-66
2021/12/03 00:44:00;;;;;;;6.57;4.25;;;;;;;;;;5091816;28;20052;-66
2021/12/03 00:46:27;;;;;;;6.35;4.50;;;;;;;;;;5092808;28;20540;-66
2021/12/03 00:48:54;;;;;;;6.40;4.22;;;;;;;;;;5092274;28;20052;-66
2021/12/03 00:51:21;;;;;;;6.00;4.55;;;;;;;;;;5091926;28;20536;-66
2021/12/03 00:53:48;;;;;;;7.85;4.40;;;;;;;;;;5092478;28;20078;-66
2021/12/03 00:56:16;;;;;;;5.20;4.05;;;;;;;;;;5092546;28;20048;-66
2021/12/03 00:58:42;;;;;;;6.47;4.30;;;;;;;;;;5091618;28;20113;-66
2021/12/03 01:01:09;;;;;;;4.93;3.70;;;;;;;;;;5092488;28;20109;-66
2021/12/03 01:03:36;;;;;;;6.57;3.97;;;;;;;;;;5092415;28;20101;-66
2021/12/03 01:06:02;;;;;;;6.63;3.92;;;;;;;;;;5091344;28;20048;-66
2021/12/03 01:08:29;;;;;;;6.72;4.28;;;;;;;;;;5092271;28;20048;-66
2021/12/03 01:10:55;;;;;;;5.57;3.72;;;;;;;;;;5092043;28;20052;-66
2021/12/03 01:13:23;;;;;;;5.97;4.28;;;;;;;;;;5091380;28;20044;-66
2021/12/03 01:15:49;;;;;;;5.20;3.80;;;;;;;;;;5092017;28;20051;-66
2021/12/03 01:18:15;;;;;;;4.63;3.97;;;;;;;;;;5092059;28;20045;-66
2021/12/03 01:20:42;;;;;;;6.00;4.20;;;;;;;;;;5091214;28;20726;-66
2021/12/03 01:23:08;;;;;;;5.32;3.88;;;;;;;;;;5092210;28;20044;-66
2021/12/03 01:25:34;;;;;;;5.28;3.50;;;;;;;;;;5091612;28;20040;-66
2021/12/03 01:28:01;;;;;;;5.72;4.00;;;;;;;;;;5091825;28;20051;-66
2021/12/03 01:30:29;;;;;;;6.32;3.90;;;;;;;;;;5091845;28;20055;-66
2021/12/03 01:32:56;;;;;;;6.20;4.18;;;;;;;;;;5090820;28;20048;-66
2021/12/03 01:35:22;;;;;;;5.22;3.50;;;;;;;;;;5091937;28;20117;-66
2021/12/03 01:37:48;;;;;;;3.92;3.45;;;;;;;;;;5091747;28;20040;-66
2021/12/03 01:40:16;;;;;;;4.10;3.30;;;;;;;;;;5091136;28;20052;-66
2021/12/03 01:42:44;;;;;;;5.90;3.78;;;;;;;;;;5091727;28;20040;-66
2021/12/03 01:45:11;;;;;;;5.60;3.45;;;;;;;;;;5091563;28;20504;-66
2021/12/03 01:47:40;;;;;;;4.65;3.00;;;;;;;;;;5090942;28;20150;-66
2021/12/03 01:50:06;;;;;;;6.50;3.92;;;;;;;;;;5091616;28;20105;-66
2021/12/03 01:52:33;;;;;;;5.28;3.70;;;;;;;;;;5091644;28;20090;-66
2021/12/03 01:55:01;;;;;;;4.80;3.53;;;;;;;;;;5090797;28;20102;-66
2021/12/03 01:57:27;;;;;;;5.85;3.63;;;;;;;;;;5091480;28;20047;-66
2021/12/03 01:59:54;;;;;;;4.40;3.30;;;;;;;;;;5091302;28;20052;-66
2021/12/03 02:02:20;;;;;;;5.40;3.72;;;;;;;;;;5090733;28;20109;-66
2021/12/03 02:04:48;;;;;;;4.88;3.40;;;;;;;;;;5091356;28;20048;-66
2021/12/03 02:07:14;;;;;;;6.05;3.33;;;;;;;;;;5091445;28;20059;-66
2021/12/03 02:09:40;;;;;;;4.57;3.25;;;;;;;;;;5090677;28;20044;-66
2021/12/03 02:12:07;;;;;;;5.70;3.08;;;;;;;;;;5091160;28;20044;-66
2021/12/03 02:14:33;;;;;;;5.05;3.33;;;;;;;;;;5091235;28;20100;-66
2021/12/03 02:16:59;;;;;;;3.85;3.15;;;;;;;;;;5090692;28;20093;-66
2021/12/03 02:19:28;;;;;;;4.30;3.08;;;;;;;;;;5091393;28;20449;-66
2021/12/03 02:21:55;;;;;;;5.03;3.30;;;;;;;;;;5090298;28;20082;-66
2021/12/03 02:24:22;;;;;;;4.63;3.05;;;;;;;;;;5091386;28;20546;-66
2021/12/03 02:26:49;;;;;;;5.93;3.80;;;;;;;;;;5093813;28;20055;-66
2021/12/03 02:29:16;;;;;;;5.10;3.20;;;;;;;;;;5094630;28;20051;-66
2021/12/03 02:31:42;;;;;;;3.85;3.22;;;;;;;;;;5095207;28;20089;-66
2021/12/03 02:34:08;;;;;;;3.88;3.20;;;;;;;;;;5095579;28;20097;-66
2021/12/03 02:36:35;;;;;;;14.65;2.92;;;;;;;;;;5094801;28;20048;-66
2021/12/03 02:39:02;;;;;;;5.50;3.80;;;;;;;;;;5094871;28;20865;-66
2021/12/03 02:41:28;;;;;;;3.90;3.15;;;;;;;;;;5095113;28;20101;-66
2021/12/03 02:43:55;;;;;;;4.63;3.17;;;;;;;;;;5093834;28;20383;-66
2021/12/03 02:46:21;;;;;;;5.85;3.47;;;;;;;;;;5095162;28;20476;-66
2021/12/03 02:48:47;;;;;;;3.75;3.10;;;;;;;;;;5094661;28;20104;-66
2021/12/03 02:51:14;;;;;;;5.38;3.60;;;;;;;;;;5094002;28;20048;-66
2021/12/03 02:53:40;;;;;;;5.50;3.58;;;;;;;;;;5095019;28;20694;-66
2021/12/03 02:56:08;;;;;;;4.97;3.50;;;;;;;;;;5094634;28;20052;-66
2021/12/03 02:58:35;;;;;;;4.60;3.30;;;;;;;;;;5093891;28;20048;-66
2021/12/03 03:01:04;;;;;;;5.78;3.33;;;;;;;;;;5094702;28;20122;-66
2021/12/03 03:03:30;;;;;;;5.55;3.47;;;;;;;;;;5094850;28;20051;-66
2021/12/03 03:05:57;;;;;;;4.80;3.28;;;;;;;;;;5093846;28;20044;-66
2021/12/03 03:08:24;;;;;;;4.45;3.00;;;;;;;;;;5094499;28;20052;-66
2021/12/03 03:10:51;;;;;;;4.68;3.58;;;;;;;;;;5093979;28;20507;-66
2021/12/03 03:13:19;;;;;;;3.90;3.55;;;;;;;;;;5094017;28;20548;-66
2021/12/03 03:15:45;;;;;;;5.75;3.53;;;;;;;;;;5094413;28;20089;-66
2021/12/03 03:18:12;;;;;;;4.30;3.28;;;;;;;;;;5093874;28;20089;-66
2021/12/03 03:20:40;;;;;;;3.72;3.38;;;;;;;;;;5094603;28;20044;-66
2021/12/03 03:23:07;;;;;;;4.95;3.58;;;;;;;;;;5094149;28;20048;-66
2021/12/03 03:25:33;;;;;;;4.57;3.38;;;;;;;;;;5093633;28;20070;-66
2021/12/03 03:27:59;;;;;;;4.40;3.13;;;;;;;;;;5094405;28;20101;-66
2021/12/03 03:30:27;;;;;;;4.95;3.25;;;;;;;;;;5094182;28;20133;-66
2021/12/03 03:32:53;;;;;;;3.80;3.33;;;;;;;;;;5093287;28;20089;-66
2021/12/03 03:35:20;;;;;;;4.55;3.80;;;;;;;;;;5094220;28;20040;-66
2021/12/03 03:37:46;;;;;;;5.13;3.47;;;;;;;;;;5093706;28;20073;-66
2021/12/03 03:40:12;;;;;;;3.83;3.00;;;;;;;;;;5093450;28;20044;-66
2021/12/03 03:42:39;;;;;;;4.85;3.70;;;;;;;;;;5094254;28;20044;-66
2021/12/03 03:45:07;;;;;;;4.35;3.20;;;;;;;;;;5093472;28;20509;-66
2021/12/03 03:47:35;;;;;;;4.85;3.35;;;;;;;;;;5093276;28;20079;-66
2021/12/03 03:50:02;;;;;;;4.38;3.58;;;;;;;;;;5093569;28;20502;-66
2021/12/03 03:52:28;;;;;;;5.18;3.70;;;;;;;;;;5093865;28;20051;-66
2021/12/03 03:54:55;;;;;;;4.45;3.40;;;;;;;;;;5092820;28;20112;-66
2021/12/03 03:57:21;;;;;;;4.78;3.78;;;;;;;;;;5093862;28;20105;-66
2021/12/03 03:59:47;;;;;;;4.20;3.63;;;;;;;;;;5093305;28;20487;-66
2021/12/03 04:02:14;;;;;;;5.50;3.50;;;;;;;;;;5092904;28;20448;-66
2021/12/03 04:04:41;;;;;;;5.78;4.07;;;;;;;;;;5093716;28;20097;-66
2021/12/03 04:07:07;;;;;;;5.32;3.58;;;;;;;;;;5093100;28;20044;-66
2021/12/03 04:09:34;;;;;;;4.85;3.95;;;;;;;;;;5093401;28;20109;-66
2021/12/03 04:12:00;;;;;;;6.22;3.80;;;;;;;;;;5093291;28;20048;-66
2021/12/03 04:14:26;;;;;;;5.47;3.78;;;;;;;;;;5092754;28;20097;-66
2021/12/03 04:16:52;;;;;;;4.07;3.65;;;;;;;;;;5093248;28;20052;-66
2021/12/03 04:19:18;;;;;;;4.65;4.07;;;;;;;;;;5093281;28;20464;-66
2021/12/03 04:21:46;;;;;;;5.20;4.30;;;;;;;;;;5092204;28;20070;-66
2021/12/03 04:24:12;;;;;;;4.60;3.95;;;;;;;;;;5093412;28;20077;-66
2021/12/03 04:26:39;;;;;;;3.88;3.50;;;;;;;;;;5093303;28;20044;-66
2021/12/03 04:29:05;;;;;;;6.45;4.50;;;;;;;;;;5092214;28;20109;-66
2021/12/03 04:31:31;;;;;;;5.55;4.00;;;;;;;;;;5092906;28;20464;-66
2021/12/03 04:33:57;;;;;;;7.20;4.45;;;;;;;;;;5092726;28;20048;-66
2021/12/03 04:36:24;;;;;;;5.22;4.55;;;;;;;;;;5091968;28;20548;-66
2021/12/03 04:38:51;;;;;;;5.55;4.70;;;;;;;;;;5092845;28;20085;-66
2021/12/03 04:41:18;;;;;;;5.50;4.53;;;;;;;;;;5092927;28;20101;-66
2021/12/03 04:43:44;;;;;;;5.32;4.68;;;;;;;;;;5091643;28;20056;-66
2021/12/03 04:46:10;;;;;;;5.70;4.85;;;;;;;;;;5092672;28;20478;-66
2021/12/03 04:48:37;;;;;;;6.82;4.50;;;;;;;;;;5092190;28;20048;-66
2021/12/03 04:51:03;;;;;;;7.07;5.22;;;;;;;;;;5091474;28;20071;-66
2021/12/03 04:53:29;;;;;;;6.30;5.18;;;;;;;;;;5092820;28;20464;-66
2021/12/03 04:55:57;;;;;;;7.43;5.40;;;;;;;;;;5092118;28;20047;-66
2021/12/03 04:58:25;;;;;;;5.68;4.88;;;;;;;;;;5091772;28;20089;-66
2021/12/03 05:00:52;;;;;;;6.70;5.55;;;;;;;;;;5092199;28;20052;-66
2021/12/03 05:03:19;;;;;;;6.30;5.70;;;;;;;;;;5092488;28;20109;-66
2021/12/03 05:05:49;;;;;;;8.07;5.95;;;;;;;;;;5091401;28;20135;-66
2021/12/03 05:08:16;;;;;;;7.10;6.22;;;;;;;;;;5092209;28;20441;-66
2021/12/03 05:10:44;;;;;;;6.68;6.00;;;;;;;;;;5092727;28;20104;-65
2021/12/03 05:13:13;;;;;;;8.25;6.35;;;;;;;;;;5092698;28;20044;-66
2021/12/03 05:15:40;;;;;;;8.55;6.35;;;;;;;;;;5092347;28;20055;-66
2021/12/03 05:18:06;;;;;;;7.97;6.60;;;;;;;;;;5091122;28;20547;-66
2021/12/03 05:20:33;;;;;;;6.70;6.00;;;;;;;;;;5093578;28;20048;-66
2021/12/03 05:22:59;;;;;;;7.80;6.50;;;;;;;;;;5092513;28;20486;-66
2021/12/03 05:25:26;;;;;;;7.93;6.80;;;;;;;;;;5092256;28;20052;-66
2021/12/03 05:27:53;;;;;;;7.97;6.85;;;;;;;;;;5092046;28;20040;-66
2021/12/03 05:30:21;;;;;;;9.43;7.35;;;;;;;;;;5091759;28;20040;-66
2021/12/03 05:32:47;;;;;;;10.65;7.85;;;;;;;;;;5092266;28;20089;-66
2021/12/03 05:35:14;;;;;;;11.10;7.30;;;;;;;;;;5092317;28;20121;-66
2021/12/03 05:37:40;;;;;;;8.90;7.30;;;;;;;;;;5092101;28;20109;-66
2021/12/03 05:40:08;;;;;;;8.18;7.25;;;;;;;;;;5091125;28;20051;-66
2021/12/03 05:42:34;;;;;;;9.23;7.75;;;;;;;;;;5091982;28;20048;-67
2021/12/03 05:45:01;;;;;;;9.90;7.90;;;;;;;;;;5091198;28;20056;-67
2021/12/03 05:47:28;;;;;;;8.95;7.88;;;;;;;;;;5091077;28;20040;-67
2021/12/03 05:49:54;;;;;;;10.82;7.68;;;;;;;;;;5091838;28;20529;-67
2021/12/03 05:52:21;;;;;;;10.07;7.93;;;;;;;;;;5091585;28;20048;-67
2021/12/03 05:54:47;;;;;;;11.82;8.50;;;;;;;;;;5094319;28;20105;-67
2021/12/03 05:57:13;;;;;;;10.90;7.80;;;;;;;;;;5091547;28;20658;-67
2021/12/03 05:59:39;;;;;;;9.50;7.75;;;;;;;;;;5090850;28;20044;-67
2021/12/03 06:02:05;;;;;;;11.02;8.10;;;;;;;;;;5092242;28;20052;-67
2021/12/03 06:04:34;;;;;;;11.57;8.20;;;;;;;;;;5091647;28;20097;-67
2021/12/03 06:07:00;;;;;;;10.77;8.60;;;;;;;;;;5090690;28;20048;-67
2021/12/03 06:09:26;;;;;;;9.15;7.22;;;;;;;;;;5091262;28;20428;-67
2021/12/03 06:11:52;;;;;;;11.00;8.73;;;;;;;;;;5091006;28;20047;-67
2021/12/03 06:14:19;;;;;;;9.07;7.60;;;;;;;;;;5090486;28;20048;-67
2021/12/03 06:16:45;;;;;;;9.82;8.05;;;;;;;;;;5091043;28;20044;-67
2021/12/03 06:19:11;;;;;;;11.52;8.32;;;;;;;;;;5091311;28;20044;-67
2021/12/03 06:21:39;;;;;;;10.65;8.48;;;;;;;;;;5090541;28;20097;-67
2021/12/03 06:24:05;;;;;;;11.07;7.93;;;;;;;;;;5090963;28;20097;-67
2021/12/03 06:26:31;;;;;;;10.35;7.85;;;;;;;;;;5091170;28;20121;-67
2021/12/03 06:28:58;;;;;;;12.05;8.80;;;;;;;;;;5089999;28;20486;-67
2021/12/03 06:31:24;;;;;;;11.23;8.68;;;;;;;;;;5090985;28;20052;-73
2021/12/03 06:33:50;;;;;;;10.73;7.88;;;;;;;;;;5090949;28;20087;-72
2021/12/03 06:36:16;;;;;;;11.07;8.23;;;;;;;;;;5090271;28;20059;-72
2021/12/03 06:38:44;;;;;;;12.55;8.30;;;;;;;;;;5091893;28;20109;-73
2021/12/03 06:41:10;;;;;;;12.88;8.77;;;;;;;;;;5091297;28;20048;-73
2021/12/03 06:43:37;;;;;;;10.50;7.63;;;;;;;;;;5090188;28;20047;-72
2021/12/03 06:46:03;;;;;;;11.88;7.70;;;;;;;;;;5090697;28;20048;-73
2021/12/03 06:48:29;;;;;;;11.00;8.05;;;;;;;;;;5090902;28;20052;-72
2021/12/03 06:50:55;;;;;;;11.13;8.25;;;;;;;;;;5089967;28;20044;-72
2021/12/03 06:53:24;;;;;;;13.20;8.70;;;;;;;;;;5090880;28;20051;-73
2021/12/03 06:55:54;;;;;;;11.75;8.25;;;;;;;;;;5090697;28;20079;-72
2021/12/03 06:58:21;;;;;;;14.48;8.68;;;;;;;;;;5090543;28;20241;-72
2021/12/03 07:00:49;;;;;;;11.70;8.55;;;;;;;;;;5090773;28;20048;-73
2021/12/03 07:03:16;;;;;;;14.13;8.73;;;;;;;;;;5090306;28;20048;-66
2021/12/03 07:05:42;;;;;;;14.45;8.55;;;;;;;;;;5090878;28;20048;-67
2021/12/03 07:08:09;;;;;;;13.00;8.48;;;;;;;;;;5090873;28;20055;-68
2021/12/03 07:10:35;;;;;;;14.57;8.55;;;;;;;;;;5089978;28;20051;-66
2021/12/03 07:13:03;;;;;;;17.42;8.50;;;;;;;;;;5089598;28;20048;-66
2021/12/03 07:15:29;;;;;;;13.95;7.85;;;;;;;;;;5094345;28;20048;-66
2021/12/03 07:17:56;;;;;;;13.23;7.90;;;;;;;;;;5093317;28;20048;-70
2021/12/03 07:20:23;;;;;;;15.90;7.65;;;;;;;;;;5094411;28;20051;-68
2021/12/03 07:22:49;;;;;;;14.80;8.45;;;;;;;;;;5093816;28;20043;-66
2021/12/03 07:25:16;;;;;;;14.00;7.72;;;;;;;;;;5093300;28;20052;-65
2021/12/03 07:27:42;;;;;;;12.52;7.57;;;;;;;;;;5093163;28;20478;-67
2021/12/03 07:30:11;;;;;;;16.80;8.15;;;;;;;;;;5094122;28;20478;-68
2021/12/03 07:32:37;;;;;;;16.27;7.13;;;;;;;;;;5093325;28;20051;-66
2021/12/03 07:35:05;;;;;;;14.60;7.57;;;;;;;;;;5093730;28;20105;-66
2021/12/03 07:37:31;;;;;;;15.02;8.02;;;;;;;;;;5093513;28;20498;-66
2021/12/03 07:39:58;;;;;;;14.63;7.78;;;;;;;;;;5092116;28;20040;-67
2021/12/03 07:42:24;;;;;;;15.48;7.70;;;;;;;;;;5093382;28;20063;-66
2021/12/03 07:44:51;;;;;;;13.73;7.50;;;;;;;;;;5093375;28;20551;-67
2021/12/03 07:47:18;;;;;;;15.75;8.20;;;;;;;;;;5093509;28;20044;-66
2021/12/03 07:49:46;;;;;;;14.85;7.57;;;;;;;;;;5093537;28;20048;-67
2021/12/03 07:52:14;;;;;;;15.27;7.93;;;;;;;;;;5093283;28;20102;-66
2021/12/03 07:54:42;;;;;;;15.13;7.68;;;;;;;;;;5093989;28;20189;-65
2021/12/03 07:57:08;;;;;;;14.35;7.32;;;;;;;;;;5093488;28;20047;-66
2021/12/03 07:59:34;;;;;;;16.13;7.32;;;;;;;;;;5092809;28;20461;-66
2021/12/03 08:02:01;;;;;;;14.48;6.88;;;;;;;;;;5093443;28;20048;-66
2021/12/03 08:04:28;;;;;;;12.30;6.65;;;;;;;;;;5094802;28;20043;-68
2021/12/03 08:06:55;;;;;;;12.48;7.03;;;;;;;;;;5092285;28;20044;-69
2021/12/03 08:09:21;;;;;;;14.02;6.60;;;;;;;;;;5093822;28;20430;-65
2021/12/03 08:11:47;;;;;;;14.45;6.75;;;;;;;;;;5092684;28;20051;-66
2021/12/03 08:14:13;;;;;;;16.23;6.90;;;;;;;;;;5092847;28;20090;-66
2021/12/03 08:16:40;;;;;;;13.32;6.43;;;;;;;;;;5093459;28;20196;-66
2021/12/03 08:19:06;;;;;;;14.75;6.57;;;;;;;;;;5093220;28;20040;-67
2021/12/03 08:21:34;;;;;;;14.50;7.00;;;;;;;;;;5092487;28;20109;-66
2021/12/03 08:24:00;;;;;;;13.25;6.50;;;;;;;;;;5092153;28;20044;-67
2021/12/03 08:26:26;;;;;;;19.70;7.43;;;;;;;;;;5092867;28;20040;-66
2021/12/03 08:28:53;;;;;;;15.88;6.32;;;;;;;;;;5092111;28;20090;-67
2021/12/03 08:31:19;;;;;;;12.60;5.10;;;;;;;;;;5092914;28;20044;-67
2021/12/03 08:33:45;;;;;;;12.60;5.25;;;;;;;;;;5092554;28;20048;-67
2021/12/03 08:36:12;;;;;;;13.65;5.65;;;;;;;;;;5092081;28;20130;-67
2021/12/03 08:38:40;;;;;;;12.80;5.53;;;;;;;;;;5092991;28;20055;-66
2021/12/03 08:41:07;;;;;;;12.88;5.80;;;;;;;;;;5092097;28;20044;-67
2021/12/03 08:43:33;;;;;;;13.50;6.43;;;;;;;;;;5091966;28;20422;-65
2021/12/03 08:46:08;;;;;;;15.43;6.38;;;;;;;;;;5092329;28;20486;-66
2021/12/03 08:48:37;;;;;;;16.23;6.07;;;;;;;;;;5092050;28;20068;-65
2021/12/03 08:51:22;;;;;;;14.10;5.45;;;;;;;;;;5092539;28;20044;-65
2021/12/03 08:56:33;;;;;;;16.83;5.53;;;;;;;;;;5091910;28;20055;-64
2021/12/03 08:58:59;;;;;;;18.00;6.25;;;;;;;;;;5092170;28;20040;-64
2021/12/03 09:01:26;;;;;;;17.23;6.63;;;;;;;;;;5092477;28;20410;-64
2021/12/03 09:03:53;;;;;;;13.77;6.15;;;;;;;;;;5091386;28;20494;-64
2021/12/03 09:06:19;;;;;;;18.05;6.57;;;;;;;;;;5092424;28;20466;-64
2021/12/03 09:08:46;;;;;;;13.85;6.25;;;;;;;;;;5092394;28;20138;-64
2021/12/03 09:11:14;;;;;;;18.65;6.65;;;;;;;;;;5091118;28;20101;-64
2021/12/03 09:13:41;;;;;;;16.73;6.22;;;;;;;;;;5092436;28;20101;-65
2021/12/03 09:16:09;;;;;;;17.88;6.43;;;;;;;;;;5092290;28;20071;-63
2021/12/03 09:18:37;;;;;;;15.13;5.88;;;;;;;;;;5091277;28;20483;-65
2021/12/03 09:21:07;;;;;;;15.20;5.88;;;;;;;;;;5091935;28;20052;-64
2021/12/03 09:23:40;;;;;;;14.95;6.30;;;;;;;;;;5092027;28;20044;-67
2021/12/03 09:26:08;;;;;;;15.85;5.95;;;;;;;;;;5091295;28;20478;-67
2021/12/03 09:28:37;;;;;;;14.18;5.78;;;;;;;;;;5092121;28;20048;-67
2021/12/03 09:31:03;;;;;;;13.73;6.05;;;;;;;;;;5090845;28;20045;-67
2021/12/03 09:33:31;;;;;;;18.38;6.03;;;;;;;;;;5091794;28;20224;-70
2021/12/03 09:36:01;;;;;;;18.63;6.07;;;;;;;;;;5091498;28;20044;-66
2021/12/03 09:38:31;;;;;;;15.90;6.20;;;;;;;;;;5091019;28;20051;-66
2021/12/03 09:41:00;;;;;;;17.65;5.57;;;;;;;;;;5091400;28;20047;-66
2021/12/03 09:43:26;;;;;;;18.75;6.22;;;;;;;;;;5091702;28;20093;-71
2021/12/03 09:46:00;;;;;;;13.98;5.53;;;;;;;;;;5090739;28;20048;-69
2021/12/03 09:48:40;;;;;;;14.77;5.75;;;;;;;;;;5091750;28;20044;-66
2021/12/03 09:51:06;;;;;;;14.15;5.15;;;;;;;;;;5091570;28;20055;-67
2021/12/03 09:54:05;;;;;;;16.98;5.95;;;;;;;;;;5090969;28;20048;-65
2021/12/03 09:56:28;;;;;;;16.33;5.05;;;;;;;;;;5091576;28;20043;-63
2021/12/03 10:01:47;;;;;;;14.90;6.30;;;;;;;;;;5091167;28;20051;-66
2021/12/03 10:04:34;;;;;;;12.75;5.35;;;;;;;;;;5091740;28;20101;-69
2021/12/03 10:10:17;;;;;;;14.30;5.20;;;;;;;;;;5091307;28;20129;-65
2021/12/03 10:12:46;;;;;;;12.23;5.22;;;;;;;;;;5091744;28;20113;-65
2021/12/03 10:15:15;;;;;;;11.63;5.85;;;;;;;;;;5090747;28;20040;-65
2021/12/03 10:17:50;;;;;;;12.60;4.88;;;;;;;;;;5091359;28;20040;-65
2021/12/03 10:20:27;;;;;;;13.88;4.75;;;;;;;;;;5090689;28;20516;-65
2021/12/03 10:32:13;;;;;;;14.18;5.20;;;;;;;;;;5091468;28;20120;-65
2021/12/03 10:49:06;;;;;;;12.90;4.13;;;;;;;;;;5062743;28;20487;-65
2021/12/03 10:51:45;;;;;;;10.65;4.13;;;;;;;;;;5095264;28;20402;-65
2021/12/03 10:54:19;;;;;;;10.60;3.78;;;;;;;;;;5095162;28;20444;-65
2021/12/03 10:57:16;;;;;;;12.35;4.22;;;;;;;;;;5094281;28;20044;-65
2021/12/03 11:00:18;;;;;;;10.90;4.22;;;;;;;;;;5094645;28;20055;-65
2021/12/03 11:06:17;;;;;;;10.75;4.20;;;;;;;;;;5052835;28;20056;-65
2021/12/03 12:00:22;;;;;;;8.35;3.80;;;;;;;;;;5067031;28;20049;-61
2021/12/03 12:20:49;;;;;;;9.75;4.10;;;;;;;;;;5058888;28;20060;-60
2021/12/03 12:24:08;;;;;;;10.90;4.10;;;;;;;;;;5067441;28;20051;-61
2021/12/03 13:59:55;;;;;;;6.05;3.97;;;;;;;;;;5031721;28;20065;-62
2021/12/03 14:19:47;;;;;;;7.78;4.18;;;;;;;;;;5032191;28;20123;-61
2021/12/03 14:39:04;;;;;;;8.93;4.40;;;;;;;;;;5038656;28;20048;-66
2021/12/03 14:41:43;;;;;;;9.60;3.60;;;;;;;;;;5051287;28;20053;-65
2021/12/03 14:44:17;;;;;;;6.93;3.47;;;;;;;;;;5051550;28;20045;-64
2021/12/03 14:50:05;;;;;;;6.57;3.95;;;;;;;;;;5015516;28;20056;-63
2021/12/03 14:52:36;;;;;;;7.68;3.75;;;;;;;;;;5051806;28;20051;-65
2021/12/03 14:55:05;;;;;;;7.53;4.95;;;;;;;;;;5050402;28;20052;-63
2021/12/03 14:57:37;;;;;;;8.43;4.88;;;;;;;;;;5051840;28;20059;-63
2021/12/03 15:00:13;;;;;;;8.48;5.13;;;;;;;;;;5051423;28;20041;-62
2021/12/03 15:02:58;;;;;;;10.32;4.70;;;;;;;;;;5051098;28;20073;-63
2021/12/03 15:05:42;;;;;;;6.55;4.38;;;;;;;;;;5051253;28;20045;-62
2021/12/03 15:08:12;;;;;;;9.73;5.00;;;;;;;;;;5051729;28;20562;-63
2021/12/03 15:10:54;;;;;;;5.78;4.45;;;;;;;;;;5050133;28;20145;-63
2021/12/03 15:13:38;;;;;;;6.50;4.20;;;;;;;;;;5051227;28;20424;-64
2021/12/03 15:19:04;;;;;;;6.90;4.20;;;;;;;;;;5050998;28;20118;-66
2021/12/03 15:24:36;;;;;;;7.63;4.55;;;;;;;;;;5046548;28;20056;-62
2021/12/03 15:27:24;;;;;;;8.20;3.92;;;;;;;;;;5046038;28;20057;-62
2021/12/03 15:30:19;;;;;;;6.18;3.53;;;;;;;;;;5032989;28;20079;-60
2021/12/03 15:32:48;;;;;;;6.55;3.60;;;;;;;;;;5050308;28;20053;-64
2021/12/03 15:35:17;;;;;;;5.88;3.78;;;;;;;;;;5050930;28;20042;-62
2021/12/03 15:38:01;;;;;;;5.32;3.88;;;;;;;;;;5049740;28;20049;-63
2021/12/03 15:40:56;;;;;;;5.60;3.75;;;;;;;;;;5050754;28;20041;-63
2021/12/03 15:52:24;;;;;;;4.30;3.45;;;;;;;;;;5050150;28;20086;-62
2021/12/03 15:55:13;;;;;;;4.88;3.70;;;;;;;;;;5050520;28;20049;-63
2021/12/03 15:58:00;;;;;;;3.80;3.03;;;;;;;;;;5049326;28;20137;-63
2021/12/03 16:06:16;;;;;;;4.95;3.42;;;;;;;;;;5049550;28;20622;-63
2021/12/03 16:08:44;;;;;;;5.43;3.83;;;;;;;;;;5050177;28;20479;-63
2021/12/03 16:11:20;;;;;;;5.10;3.47;;;;;;;;;;5050409;28;20056;-64
2021/12/03 16:13:52;;;;;;;4.80;3.80;;;;;;;;;;5049291;28;20053;-63
2021/12/03 16:22:09;;;;;;;4.20;3.80;;;;;;;;;;5042860;28;20099;-64
2021/12/03 16:24:57;;;;;;;7.53;3.35;;;;;;;;;;5053717;28;20041;-64
2021/12/03 16:43:57;;;;;;;4.25;3.70;;;;;;;;;;5053522;28;20135;-63
2021/12/03 16:51:49;;;;;;;4.60;3.55;;;;;;;;;;5052929;28;20084;-64
2021/12/03 16:54:19;;;;;;;4.28;3.88;;;;;;;;;;5052694;28;20045;-64
2021/12/03 16:56:48;;;;;;;5.80;4.38;;;;;;;;;;5052762;28;20049;-64
2021/12/03 16:59:14;;;;;;;4.65;4.15;;;;;;;;;;5053219;28;20539;-63
2021/12/03 17:01:45;;;;;;;5.03;4.38;;;;;;;;;;5052481;28;20052;-61
2021/12/03 17:04:36;;;;;;;11.05;4.93;;;;;;;;;;5053185;28;20053;-63
2021/12/03 17:12:39;;;;;;;6.25;5.10;;;;;;;;;;5051683;28;20041;-63
2021/12/03 17:15:19;;;;;;;5.45;4.38;;;;;;;;;;5052323;28;20049;-63
2021/12/03 17:21:14;;;;;;;5.15;4.65;;;;;;;;;;5051517;28;20044;-62
2021/12/03 17:46:14;;;;;;;5.28;4.72;;;;;;;;;;5067820;28;20048;-63
2021/12/03 17:57:08;;;;;;;8.48;5.65;;;;;;;;;;5067521;28;20082;-62
2021/12/03 17:59:38;;;;;;;5.20;4.80;;;;;;;;;;5067556;28;20041;-62
2021/12/03 18:02:10;;;;;;;5.57;5.07;;;;;;;;;;5067502;28;20055;-63
2021/12/03 18:04:44;;;;;;;6.43;5.72;;;;;;;;;;5066859;28;20055;-62
2021/12/03 18:07:18;;;;;;;5.68;5.18;;;;;;;;;;5067951;28;20055;-63
2021/12/03 18:10:06;;;;;;;7.15;6.10;;;;;;;;;;5067387;28;20048;-62
2021/12/03 18:43:31;;;;;;;6.90;5.95;;;;;;;;;;4980149;28;20096;-63
2021/12/03 18:46:18;;;;;;;6.30;5.70;;;;;;;;;;5033727;28;20049;-63
2021/12/03 18:48:56;;;;;;;5.82;5.32;;;;;;;;;;5033158;28;20409;-62
2021/12/03 18:51:28;;;;;;;6.10;5.50;;;;;;;;;;5033585;28;20060;-63
2021/12/03 18:54:18;;;;;;;6.20;5.60;;;;;;;;;;5032870;28;20049;-62
2021/12/03 18:56:46;;;;;;;6.22;5.72;;;;;;;;;;5032941;28;20041;-62
2021/12/03 18:59:12;;;;;;;6.32;5.82;;;;;;;;;;5047872;28;20421;-61
2021/12/03 19:01:39;;;;;;;6.22;5.65;;;;;;;;;;5052557;28;20048;-67
2021/12/03 19:04:14;;;;;;;6.00;5.50;;;;;;;;;;5053039;28;20045;-65
2021/12/03 19:06:44;;;;;;;5.93;5.43;;;;;;;;;;5053457;28;20044;-64
2021/12/03 19:09:14;;;;;;;6.25;5.60;;;;;;;;;;5052359;28;20055;-64
2021/12/03 19:11:45;;;;;;;6.53;5.93;;;;;;;;;;5052835;28;20044;-63
2021/12/03 19:14:11;;;;;;;6.30;5.70;;;;;;;;;;5053292;28;20037;-65
2021/12/03 19:16:38;;;;;;;6.28;5.75;;;;;;;;;;5052172;28;20553;-64
2021/12/03 19:19:05;;;;;;;6.25;5.65;;;;;;;;;;5052751;28;20040;-65
2021/12/03 19:21:38;;;;;;;6.60;6.00;;;;;;;;;;5052112;28;20553;-64
2021/12/03 19:24:04;;;;;;;6.18;5.57;;;;;;;;;;5052637;28;20049;-65
2021/12/03 19:26:33;;;;;;;6.03;5.50;;;;;;;;;;5052511;28;20092;-62
2021/12/03 19:29:00;;;;;;;6.38;5.78;;;;;;;;;;5052182;28;20049;-64
2021/12/03 19:31:27;;;;;;;6.25;5.65;;;;;;;;;;5052645;28;20450;-63
2021/12/03 19:33:54;;;;;;;6.15;5.47;;;;;;;;;;5053021;28;20053;-63
2021/12/03 19:36:22;;;;;;;5.93;5.32;;;;;;;;;;5052324;28;20045;-63
2021/12/03 19:38:48;;;;;;;6.15;5.60;;;;;;;;;;5052845;28;20396;-63
2021/12/03 19:41:18;;;;;;;6.43;5.82;;;;;;;;;;5052573;28;20483;-65
2021/12/03 19:43:47;;;;;;;6.32;5.72;;;;;;;;;;5051493;28;20044;-66
2021/12/03 19:46:19;;;;;;;6.50;5.90;;;;;;;;;;5052855;28;20133;-66
2021/12/03 19:48:50;;;;;;;5.80;5.30;;;;;;;;;;5052377;28;20049;-66
2021/12/03 19:51:19;;;;;;;5.95;5.45;;;;;;;;;;5051853;28;20478;-63
2021/12/03 19:53:49;;;;;;;6.05;5.55;;;;;;;;;;5051342;28;20052;-64
2021/12/03 19:56:16;;;;;;;6.72;5.80;;;;;;;;;;5052589;28;20124;-64
2021/12/03 19:58:42;;;;;;;5.65;5.03;;;;;;;;;;5047088;28;20094;-64
2021/12/03 20:01:09;;;;;;;6.00;5.50;;;;;;;;;;5051530;28;20077;-66
2021/12/03 20:03:36;;;;;;;6.60;5.75;;;;;;;;;;5051558;28;20045;-67
2021/12/03 20:06:02;;;;;;;5.30;4.80;;;;;;;;;;5050427;28;20056;-64
2021/12/03 20:08:29;;;;;;;6.00;5.40;;;;;;;;;;5052335;28;20049;-62
2021/12/03 20:10:59;;;;;;;6.28;5.68;;;;;;;;;;5050873;28;20049;-66
2021/12/03 20:13:26;;;;;;;5.35;4.55;;;;;;;;;;5051673;28;20053;-62
2021/12/03 20:16:00;;;;;;;5.95;5.45;;;;;;;;;;5051584;28;20514;-63
2021/12/03 20:18:34;;;;;;;5.60;5.10;;;;;;;;;;5051382;28;20080;-62
2021/12/03 20:21:00;;;;;;;5.80;5.30;;;;;;;;;;5051803;28;20110;-63
2021/12/03 20:23:35;;;;;;;5.65;5.15;;;;;;;;;;5051766;28;20102;-62
2021/12/03 20:28:50;;;;;;;5.25;4.75;;;;;;;;;;5051041;28;20191;-63
2021/12/03 20:31:18;;;;;;;6.03;5.22;;;;;;;;;;5051210;28;20511;-65
2021/12/03 20:34:04;;;;;;;5.72;5.22;;;;;;;;;;5050554;28;20492;-64
2021/12/03 20:36:42;;;;;;;5.50;5.00;;;;;;;;;;5051675;28;20084;-65
2021/12/03 20:39:14;;;;;;;5.80;5.25;;;;;;;;;;5051002;28;20041;-62
2021/12/03 20:41:44;;;;;;;5.80;5.22;;;;;;;;;;5051039;28;20056;-61
2021/12/03 20:44:39;;;;;;;6.45;5.30;;;;;;;;;;5051457;28;20068;-62
2021/12/03 20:47:25;;;;;;;6.28;5.22;;;;;;;;;;5050359;28;20075;-61